createdAt,value
2023-04-09T00:00:05.476Z,81.22
2023-04-09T00:03:14.664Z,81.13
2023-04-09T00:06:17.226Z,80.84
2023-04-09T00:09:20.941Z,81.29
2023-04-09T00:12:23.211Z,81.29
2023-04-09T00:15:31.166Z,81.72
2023-04-09T00:18:34.450Z,81.67
2023-04-09T00:21:37.162Z,81.97
2023-04-09T00:24:39.625Z,81.93
2023-04-09T00:27:42.041Z,81.47
2023-04-09T00:30:44.644Z,81.89
2023-04-09T00:33:47.049Z,80.90
2023-04-09T00:36:49.570Z,80.76
2023-04-09T00:39:52.176Z,80.87
2023-04-09T00:42:54.600Z,80.76
2023-04-09T00:45:57.269Z,80.13
2023-04-09T00:48:59.933Z,79.53
2023-04-09T00:52:02.808Z,79.93
2023-04-09T00:55:06.504Z,80.08
2023-04-09T00:58:08.980Z,79.66
2023-04-09T01:01:11.674Z,79.89
2023-04-09T01:04:14.379Z,79.51
2023-04-09T01:07:55.038Z,80.34
2023-04-09T01:11:16.363Z,80.86
2023-04-09T01:14:26.815Z,81.17
2023-04-09T01:17:36.108Z,80.41
2023-04-09T01:20:38.927Z,80.66
2023-04-09T01:23:50.764Z,80.83
2023-04-09T01:27:04.506Z,80.84
2023-04-09T01:30:13.854Z,81.30
2023-04-09T01:33:17.845Z,81.02
2023-04-09T01:36:20.780Z,80.71
2023-04-09T01:39:23.537Z,80.80
2023-04-09T01:42:26.170Z,80.82
2023-04-09T01:45:28.663Z,80.68
2023-04-09T01:48:31.536Z,80.51
2023-04-09T01:51:34.046Z,80.39
2023-04-09T01:54:36.723Z,80.22
2023-04-09T01:57:39.259Z,79.44
2023-04-09T02:00:51.283Z,79.16
2023-04-09T02:03:56.870Z,79.24
2023-04-09T02:07:15.517Z,79.77
2023-04-09T02:10:18.087Z,79.38
2023-04-09T02:13:21.831Z,79.45
2023-04-09T02:16:24.370Z,79.56
2023-04-09T02:19:47.113Z,79.77
2023-04-09T02:22:49.426Z,79.59
2023-04-09T02:25:52.271Z,79.40
2023-04-09T02:28:55.089Z,79.53
2023-04-09T02:31:57.566Z,80.02
2023-04-09T02:35:00.000Z,79.98
2023-04-09T02:38:02.477Z,79.80
2023-04-09T02:41:05.035Z,80.44
2023-04-09T02:44:07.486Z,80.16
2023-04-09T02:47:10.268Z,80.98
2023-04-09T02:50:13.562Z,81.23
2023-04-09T02:53:22.278Z,81.17
2023-04-09T02:56:24.739Z,80.50
2023-04-09T02:59:27.150Z,80.87
2023-04-09T03:02:29.812Z,81.05
2023-04-09T03:05:32.403Z,80.38
2023-04-09T03:08:35.088Z,80.16
2023-04-09T03:11:37.689Z,79.96
2023-04-09T03:14:40.146Z,80.09
2023-04-09T03:17:43.010Z,80.49
2023-04-09T03:20:45.507Z,80.74
2023-04-09T03:23:49.510Z,80.85
2023-04-09T03:26:52.387Z,81.22
2023-04-09T03:29:58.202Z,81.38
2023-04-09T03:33:09.233Z,82.13
2023-04-09T03:36:24.797Z,82.24
2023-04-09T03:39:37.542Z,82.82
2023-04-09T03:42:48.617Z,82.68
2023-04-09T03:45:52.532Z,81.93
2023-04-09T03:49:01.233Z,82.18
2023-04-09T03:52:12.352Z,81.79
2023-04-09T03:55:18.767Z,81.47
2023-04-09T03:58:21.719Z,81.35
2023-04-09T04:01:24.317Z,81.26
2023-04-09T04:04:34.112Z,81.98
2023-04-09T04:07:39.667Z,81.65
2023-04-09T04:10:46.890Z,81.79
2023-04-09T04:13:52.028Z,81.74
2023-04-09T04:16:54.785Z,81.56
2023-04-09T04:20:02.349Z,81.59
2023-04-09T04:23:07.029Z,81.04
2023-04-09T04:26:12.286Z,80.93
2023-04-09T04:29:16.866Z,81.33
2023-04-09T04:32:28.225Z,80.77
2023-04-09T04:35:31.904Z,81.00
2023-04-09T04:38:38.337Z,80.38
2023-04-09T04:41:47.056Z,80.94
2023-04-09T04:44:54.975Z,81.57
2023-04-09T04:48:30.979Z,80.09
2023-04-09T04:51:34.099Z,80.45
2023-04-09T04:54:45.453Z,80.04
2023-04-09T04:57:53.304Z,79.95
2023-04-09T05:01:00.760Z,79.92
2023-04-09T05:04:04.621Z,80.58
2023-04-09T05:07:12.358Z,79.77
2023-04-09T05:10:23.216Z,80.03
2023-04-09T05:13:26.040Z,79.42
2023-04-09T05:16:29.223Z,78.48
2023-04-09T05:19:38.342Z,79.53
2023-04-09T05:22:40.867Z,78.97
2023-04-09T05:25:43.781Z,78.04
2023-04-09T05:28:55.375Z,78.42
2023-04-09T05:31:59.428Z,79.15
2023-04-09T05:35:11.969Z,78.50
2023-04-09T05:38:18.525Z,78.79
2023-04-09T05:41:25.868Z,78.24
2023-04-09T05:44:46.701Z,77.73
2023-04-09T05:47:53.175Z,77.84
2023-04-09T05:51:00.357Z,78.26
2023-04-09T05:54:04.265Z,77.62
2023-04-09T05:57:10.769Z,77.15
2023-04-09T06:00:16.737Z,77.16
2023-04-09T06:03:19.713Z,77.40
2023-04-09T06:06:22.895Z,77.30
2023-04-09T06:09:25.517Z,76.61
2023-04-09T06:12:27.869Z,77.82
2023-04-09T06:15:30.522Z,77.60
2023-04-09T06:18:33.162Z,77.21
2023-04-09T06:21:35.607Z,76.87
2023-04-09T06:24:38.043Z,76.96
2023-04-09T06:27:40.435Z,76.73
2023-04-09T06:30:42.808Z,75.49
2023-04-09T06:33:45.430Z,74.72
2023-04-09T06:36:47.865Z,75.48
2023-04-09T06:40:00.526Z,75.46
2023-04-09T06:43:04.303Z,74.04
2023-04-09T06:46:20.097Z,73.97
2023-04-09T06:49:22.818Z,72.62
2023-04-09T06:52:25.850Z,72.09
2023-04-09T06:55:28.486Z,72.29
2023-04-09T06:58:31.357Z,70.86
2023-04-09T07:01:35.791Z,71.01
2023-04-09T07:04:38.402Z,71.62
2023-04-09T07:07:41.242Z,71.39
2023-04-09T07:10:43.669Z,71.89
2023-04-09T07:13:46.320Z,71.62
2023-04-09T07:16:48.903Z,70.50
2023-04-09T07:19:54.136Z,71.33
2023-04-09T07:22:56.597Z,71.01
2023-04-09T07:26:01.489Z,69.76
2023-04-09T07:29:04.532Z,69.58
2023-04-09T07:32:08.945Z,68.51
2023-04-09T07:35:11.862Z,66.92
2023-04-09T07:38:14.506Z,68.42
2023-04-09T07:41:17.076Z,65.53
2023-04-09T07:44:20.065Z,64.65
2023-04-09T07:47:23.499Z,60.83
2023-04-09T07:50:27.033Z,62.52
2023-04-09T07:53:30.000Z,62.19
2023-04-09T07:56:32.479Z,64.27
2023-04-09T07:59:36.564Z,61.84
2023-04-09T08:02:40.106Z,60.83
2023-04-09T08:05:43.688Z,62.23
2023-04-09T08:08:47.229Z,60.31
2023-04-09T08:11:49.650Z,61.04
2023-04-09T08:14:52.862Z,61.30
2023-04-09T08:17:55.843Z,59.28
2023-04-09T08:20:58.405Z,56.86
2023-04-09T08:24:06.008Z,59.19
2023-04-09T08:27:09.202Z,59.06
2023-04-09T08:30:12.555Z,56.85
2023-04-09T08:33:16.962Z,57.43
2023-04-09T08:36:20.394Z,56.23
2023-04-09T08:39:23.152Z,60.59
2023-04-09T08:42:26.501Z,60.10
2023-04-09T08:45:29.357Z,59.54
2023-04-09T08:48:32.480Z,57.72
2023-04-09T08:51:35.311Z,58.18
2023-04-09T08:54:38.464Z,57.51
2023-04-09T08:57:41.319Z,54.89
2023-04-09T09:00:43.752Z,58.62
2023-04-09T09:04:10.907Z,58.16
2023-04-09T09:07:14.007Z,59.63
2023-04-09T09:10:16.403Z,59.24
2023-04-09T09:13:25.662Z,58.18
2023-04-09T09:16:28.162Z,56.67
2023-04-09T09:19:34.071Z,57.88
2023-04-09T09:22:54.930Z,59.04
2023-04-09T09:25:57.975Z,59.40
2023-04-09T09:29:00.581Z,59.62
2023-04-09T09:32:03.027Z,60.09
2023-04-09T09:35:06.614Z,61.24
2023-04-09T09:38:09.051Z,59.39
2023-04-09T09:41:18.525Z,58.47
2023-04-09T09:44:32.005Z,59.63
2023-04-09T09:47:35.024Z,57.49
2023-04-09T09:50:38.279Z,59.41
2023-04-09T09:53:43.670Z,59.91
2023-04-09T09:56:46.486Z,60.14
2023-04-09T09:59:54.951Z,59.93
2023-04-09T10:02:59.350Z,55.88
2023-04-09T10:06:02.475Z,55.42
2023-04-09T10:09:05.248Z,57.36
2023-04-09T10:12:07.884Z,58.80
2023-04-09T10:15:10.658Z,56.09
2023-04-09T10:18:13.154Z,56.89
2023-04-09T10:21:34.385Z,54.08
2023-04-09T10:24:36.858Z,52.56
2023-04-09T10:27:39.530Z,54.21
2023-04-09T10:30:42.857Z,55.72
2023-04-09T10:33:46.166Z,51.94
2023-04-09T10:36:53.544Z,50.96
2023-04-09T10:39:56.605Z,51.17
2023-04-09T10:42:59.224Z,51.19
2023-04-09T10:46:02.160Z,54.79
2023-04-09T10:49:21.011Z,55.85
2023-04-09T10:52:23.409Z,56.01
2023-04-09T10:55:36.466Z,55.09
2023-04-09T10:58:38.950Z,56.09
2023-04-09T11:01:41.523Z,55.25
2023-04-09T11:05:03.143Z,53.06
2023-04-09T11:08:09.728Z,55.47
2023-04-09T11:11:13.402Z,57.51
2023-04-09T11:14:20.599Z,55.99
2023-04-09T11:17:23.131Z,57.13
2023-04-09T11:20:26.224Z,55.11
2023-04-09T11:23:28.696Z,57.15
2023-04-09T11:26:37.542Z,55.03
2023-04-09T11:29:39.934Z,55.57
2023-04-09T11:32:42.453Z,55.52
2023-04-09T11:35:44.991Z,54.48
2023-04-09T11:38:49.447Z,55.55
2023-04-09T11:41:52.185Z,52.84
2023-04-09T11:44:54.617Z,52.81
2023-04-09T11:47:57.084Z,53.09
2023-04-09T11:50:59.666Z,52.13
2023-04-09T11:54:05.771Z,49.33
2023-04-09T11:57:08.317Z,50.36
2023-04-09T12:00:14.820Z,47.54
2023-04-09T12:03:17.463Z,46.94
2023-04-09T12:06:24.851Z,45.95
2023-04-09T12:09:27.343Z,46.88
2023-04-09T12:12:29.711Z,43.53
2023-04-09T12:15:37.214Z,44.22
2023-04-09T12:18:40.105Z,40.98
2023-04-09T12:21:56.386Z,37.55
2023-04-09T12:24:59.130Z,38.51
2023-04-09T12:28:02.250Z,33.86
2023-04-09T12:31:04.416Z,29.15
2023-04-09T12:34:06.950Z,29.81
2023-04-09T12:37:09.750Z,29.40
2023-04-09T12:40:15.232Z,32.25
2023-04-09T12:43:17.964Z,31.29
2023-04-09T12:46:20.518Z,31.58
2023-04-09T12:49:23.256Z,28.39
2023-04-09T12:52:25.820Z,31.55
2023-04-09T12:55:28.718Z,35.66
2023-04-09T12:58:31.360Z,32.92
2023-04-09T13:01:33.758Z,31.09
2023-04-09T13:04:36.465Z,31.18
2023-04-09T13:07:41.494Z,28.94
2023-04-09T13:10:45.357Z,25.24
2023-04-09T13:13:47.928Z,27.51
2023-04-09T13:16:52.524Z,25.11
2023-04-09T13:19:55.191Z,25.58
2023-04-09T13:22:57.565Z,24.66
2023-04-09T13:26:01.284Z,26.38
2023-04-09T13:29:04.363Z,30.55
2023-04-09T13:32:11.408Z,33.91
2023-04-09T13:35:13.934Z,34.77
2023-04-09T13:38:16.348Z,32.38
2023-04-09T13:41:18.851Z,35.03
2023-04-09T13:44:21.260Z,36.17
2023-04-09T13:47:24.064Z,37.27
2023-04-09T13:50:26.596Z,38.39
2023-04-09T13:53:28.931Z,36.19
2023-04-09T13:56:31.507Z,33.22
2023-04-09T13:59:34.137Z,34.62
2023-04-09T14:02:36.848Z,32.57
2023-04-09T14:05:39.294Z,30.45
2023-04-09T14:08:41.863Z,32.83
2023-04-09T14:11:44.346Z,37.11
2023-04-09T14:14:46.745Z,36.36
2023-04-09T14:17:49.488Z,39.58
2023-04-09T14:20:51.909Z,38.52
2023-04-09T14:23:54.490Z,37.04
2023-04-09T14:26:57.190Z,38.38
2023-04-09T14:29:59.671Z,39.50
2023-04-09T14:33:02.213Z,38.67
2023-04-09T14:36:04.930Z,39.13
2023-04-09T14:39:07.466Z,39.00
2023-04-09T14:42:09.906Z,36.29
2023-04-09T14:45:12.655Z,37.59
2023-04-09T14:48:15.142Z,36.60
2023-04-09T14:51:17.746Z,36.69
2023-04-09T14:54:20.139Z,37.83
2023-04-09T14:57:22.489Z,39.65
2023-04-09T15:00:25.140Z,40.79
2023-04-09T15:03:28.158Z,40.22
2023-04-09T15:06:32.340Z,41.75
2023-04-09T15:09:34.779Z,40.77
2023-04-09T15:12:37.289Z,43.18
2023-04-09T15:15:44.314Z,43.43
2023-04-09T15:18:49.496Z,42.99
2023-04-09T15:21:51.914Z,43.93
2023-04-09T15:24:54.529Z,44.98
2023-04-09T15:27:57.088Z,46.10
2023-04-09T15:30:59.484Z,46.15
2023-04-09T15:34:01.988Z,46.77
2023-04-09T15:37:04.506Z,46.85
2023-04-09T15:40:07.911Z,48.03
2023-04-09T15:43:10.358Z,47.66
2023-04-09T15:46:12.895Z,48.63
2023-04-09T15:49:18.159Z,48.35
2023-04-09T15:52:20.692Z,49.75
2023-04-09T15:55:26.852Z,50.57
2023-04-09T15:58:29.287Z,50.50
2023-04-09T16:01:32.901Z,49.67
2023-04-09T16:04:35.652Z,51.13
2023-04-09T16:07:39.620Z,51.12
2023-04-09T16:10:42.015Z,51.40
2023-04-09T16:13:44.946Z,51.38
2023-04-09T16:16:50.096Z,50.56
2023-04-09T16:19:52.635Z,51.82
2023-04-09T16:22:55.003Z,51.43
2023-04-09T16:25:57.826Z,51.40
2023-04-09T16:29:04.134Z,51.89
2023-04-09T16:32:06.702Z,52.52
2023-04-09T16:35:09.363Z,53.48
2023-04-09T16:38:11.883Z,52.24
2023-04-09T16:41:14.443Z,51.61
2023-04-09T16:44:16.960Z,52.54
2023-04-09T16:47:19.388Z,53.38
2023-04-09T16:50:22.537Z,52.81
2023-04-09T16:53:24.972Z,54.23
2023-04-09T16:56:27.630Z,53.78
2023-04-09T16:59:30.064Z,54.06
2023-04-09T17:02:33.240Z,53.97
2023-04-09T17:05:35.621Z,52.52
2023-04-09T17:08:37.986Z,53.56
2023-04-09T17:11:40.079Z,54.19
2023-04-09T17:14:42.971Z,53.93
2023-04-09T17:17:46.022Z,54.06
2023-04-09T17:20:49.289Z,54.92
2023-04-09T17:23:51.536Z,54.72
2023-04-09T17:26:53.828Z,54.54
2023-04-09T17:29:56.588Z,55.55
2023-04-09T17:32:59.300Z,54.59
2023-04-09T17:36:02.224Z,55.23
2023-04-09T17:39:04.620Z,56.00
2023-04-09T17:42:07.815Z,55.55
2023-04-09T17:45:10.802Z,56.04
2023-04-09T17:48:13.172Z,56.92
2023-04-09T17:51:18.586Z,56.13
2023-04-09T17:54:26.497Z,56.36
2023-04-09T17:57:30.802Z,56.81
2023-04-09T18:00:34.476Z,57.57
2023-04-09T18:03:37.264Z,57.84
2023-04-09T18:06:40.139Z,56.85
2023-04-09T18:09:42.620Z,57.77
2023-04-09T18:12:45.105Z,57.61
2023-04-09T18:15:47.832Z,58.44
2023-04-09T18:18:50.329Z,59.05
2023-04-09T18:21:52.910Z,58.75
2023-04-09T18:24:55.572Z,59.13
2023-04-09T18:27:58.229Z,59.44
2023-04-09T18:31:00.760Z,59.99
2023-04-09T18:34:03.256Z,60.31
2023-04-09T18:37:06.213Z,61.06
2023-04-09T18:40:12.318Z,60.67
2023-04-09T18:43:14.874Z,60.98
2023-04-09T18:46:17.574Z,61.38
2023-04-09T18:49:20.022Z,62.09
2023-04-09T18:52:22.536Z,62.39
2023-04-09T18:55:25.076Z,62.33
2023-04-09T18:58:27.651Z,62.61
2023-04-09T19:01:30.370Z,63.00
2023-04-09T19:04:39.723Z,62.52
2023-04-09T19:07:43.574Z,62.47
2023-04-09T19:10:47.641Z,62.85
2023-04-09T19:13:50.172Z,63.15
2023-04-09T19:16:52.637Z,62.96
2023-04-09T19:19:55.078Z,63.17
2023-04-09T19:22:58.365Z,63.21
2023-04-09T19:26:00.922Z,62.78
2023-04-09T19:29:05.386Z,63.33
2023-04-09T19:32:09.403Z,63.14
2023-04-09T19:35:12.610Z,63.20
2023-04-09T19:38:16.060Z,63.52
2023-04-09T19:41:18.730Z,64.99
2023-04-09T19:44:21.264Z,64.92
2023-04-09T19:47:23.852Z,65.17
2023-04-09T19:50:26.466Z,65.14
2023-04-09T19:53:29.124Z,65.54
2023-04-09T19:56:32.970Z,65.80
2023-04-09T19:59:39.690Z,66.23
2023-04-09T20:02:42.637Z,66.05
2023-04-09T20:05:45.099Z,66.47
2023-04-09T20:08:49.479Z,66.71
2023-04-09T20:11:52.365Z,66.94
2023-04-09T20:14:57.979Z,66.36
2023-04-09T20:18:00.823Z,66.58
2023-04-09T20:21:03.366Z,66.07
2023-04-09T20:24:06.978Z,65.70
2023-04-09T20:27:09.655Z,65.93
2023-04-09T20:30:12.770Z,65.90
2023-04-09T20:33:15.758Z,66.41
2023-04-09T20:36:18.646Z,66.59
2023-04-09T20:39:26.815Z,66.11
2023-04-09T20:42:29.293Z,66.82
2023-04-09T20:45:31.922Z,66.05
2023-04-09T20:48:34.370Z,66.02
2023-04-09T20:51:36.995Z,66.59
2023-04-09T20:54:39.540Z,67.22
2023-04-09T20:57:42.541Z,66.35
2023-04-09T21:00:44.954Z,67.66
2023-04-09T21:03:47.578Z,67.22
2023-04-09T21:06:50.031Z,67.95
2023-04-09T21:09:52.444Z,67.57
2023-04-09T21:12:54.934Z,66.63
2023-04-09T21:15:57.602Z,67.35
2023-04-09T21:19:06.848Z,68.10
2023-04-09T21:22:09.391Z,67.93
2023-04-09T21:25:14.597Z,68.96
2023-04-09T21:28:17.718Z,68.94
2023-04-09T21:31:21.303Z,70.00
2023-04-09T21:34:23.893Z,68.83
2023-04-09T21:37:28.237Z,67.61
2023-04-09T21:40:31.296Z,67.81
2023-04-09T21:43:34.700Z,67.65
2023-04-09T21:46:37.389Z,67.88
2023-04-09T21:49:40.697Z,67.12
2023-04-09T21:52:45.124Z,67.48
2023-04-09T21:55:47.593Z,69.16
2023-04-09T21:58:50.068Z,68.61
2023-04-09T22:01:53.266Z,68.16
2023-04-09T22:04:56.304Z,68.37
2023-04-09T22:07:58.865Z,69.17
2023-04-09T22:11:01.342Z,69.35
2023-04-09T22:14:03.761Z,69.21
2023-04-09T22:17:06.137Z,68.81
2023-04-09T22:20:09.698Z,68.79
2023-04-09T22:23:12.435Z,68.73
2023-04-09T22:26:15.003Z,69.45
2023-04-09T22:29:17.437Z,68.52
2023-04-09T22:32:19.980Z,68.70
2023-04-09T22:35:22.389Z,68.38
2023-04-09T22:38:25.135Z,68.37
2023-04-09T22:41:27.657Z,69.11
2023-04-09T22:44:30.144Z,69.32
2023-04-09T22:47:32.590Z,70.33
2023-04-09T22:50:35.156Z,70.16
2023-04-09T22:53:37.580Z,70.30
2023-04-09T22:56:39.985Z,70.55
2023-04-09T22:59:43.102Z,70.08
2023-04-09T23:02:47.565Z,70.44
2023-04-09T23:05:50.331Z,69.81
2023-04-09T23:08:53.081Z,69.63
2023-04-09T23:11:56.851Z,70.28
2023-04-09T23:14:59.294Z,69.99
2023-04-09T23:18:01.841Z,70.04
2023-04-09T23:21:08.171Z,71.28
2023-04-09T23:24:10.762Z,71.50
2023-04-09T23:27:14.160Z,70.96
2023-04-09T23:30:17.186Z,71.95
2023-04-09T23:33:19.781Z,71.19
2023-04-09T23:36:24.267Z,72.98
2023-04-09T23:39:27.342Z,73.13
2023-04-09T23:42:33.028Z,72.11
2023-04-09T23:45:35.808Z,71.88
2023-04-09T23:48:38.386Z,71.80
2023-04-09T23:51:40.992Z,70.54
2023-04-09T23:54:50.273Z,70.51
2023-04-09T23:57:52.984Z,69.31
